Pagrindinis puslapis
METAR-TAF:

METAR-TAF

Oro uostai :

Gardinas, Baltarusija

platuma: 53-36-06N, ilguma: 024-03-18E, Aukštis: 135 m

Dabartinis oras

Ataskaita buvo paskelbta 2 valandos ir 16 minutes, ne 15:00 UTC
Vėjas 17 kt iš Šiaurės/Šiaurės Vakarų su gūsio iki 25 kt
Temperatūra 3°C
Drėgmė 65%
Slėgis 1015 hPa
Matomumas 10 km arba daugiau
Su prošvaistėmis ne aukštis 3000 ft

METAR: UMMG 221500Z 33009G13MPS 9999 BKN030 03/M03 Q1015 NOSIG

Laikas: 20:16 (17:16 UTC)

Prognozė

Ataskaita buvo paskelbta 3 valandos ir 2 minutes, ne 14:14 UTC
Prognozė galioja nuo 22 metu 15 UTC su 22 metu 24 UTC
Vėjas 19 kt iš Šiaurės Vakarų su gūsio iki 29 kt
Matomumas 10 km arba daugiau
Su prošvaistėmis ne aukštis 1000 ft
Su prošvaistėmis ne aukštis 1500 ft, Liūtiniai kamuoliniai debesys.
Laikinai
nuo 22 metu 15 UTC su 22 metu 19 UTC
Vėjas 25 kt iš Šiaurės/Šiaurės Vakarų su gūsio iki 35 kt
Matomumas: 3000 m
Su prošvaistėmis ne aukštis 700 ft
lietus, sniegas

TAF: UMMG 221414Z 2215/2224 32010G15MPS 9999 BKN010 BKN015CB TEMPO 2215/2219 33013G18MPS 3000 -SHRASN BKN007

Orai ataskaitas ir orų prognozės (METAR, TAF).

turimą stotys yra geltonos ir raudonos taškus žemėlapyje.

Perkelti pele per norėdami pamatyti stoties vardą.

Tada spustelėkite, norėdami matyti oro stebėjimo ir prognozės.

Norėdami pakeisti žemėlapį: spustelėkite ant žalios mygtukų su juodo kryžiaus žemyn,; žalią mygtuką su brūkšneliu, jei norite nutolinti; arba žalių rodyklių gretimoms žemėlapius.


METAR-TAF: